createdAt,value
2023-03-30T00:01:12.723Z,11.20
2023-03-30T00:04:06.138Z,11.20
2023-03-30T00:06:56.942Z,11.30
2023-03-30T00:09:48.148Z,11.30
2023-03-30T00:12:38.603Z,11.20
2023-03-30T00:15:31.850Z,11.30
2023-03-30T00:18:22.194Z,11.30
2023-03-30T00:21:12.203Z,11.30
2023-03-30T00:24:05.725Z,11.40
2023-03-30T00:27:03.724Z,11.40
2023-03-30T00:29:54.527Z,11.30
2023-03-30T00:32:47.573Z,11.30
2023-03-30T00:35:37.925Z,11.40
2023-03-30T00:38:28.572Z,11.40
2023-03-30T00:41:19.470Z,11.40
2023-03-30T00:44:10.773Z,11.40
2023-03-30T00:47:02.359Z,11.40
2023-03-30T00:49:55.609Z,11.40
2023-03-30T00:52:45.362Z,11.40
2023-03-30T00:55:38.982Z,11.30
2023-03-30T00:58:33.348Z,11.40
2023-03-30T01:01:29.295Z,11.30
2023-03-30T01:04:20.243Z,11.20
2023-03-30T01:07:13.485Z,11.30
2023-03-30T01:10:06.872Z,11.30
2023-03-30T01:12:56.743Z,11.30
2023-03-30T01:16:00.147Z,11.20
2023-03-30T01:18:57.080Z,11.20
2023-03-30T01:22:13.894Z,11.10
2023-03-30T01:25:32.272Z,11.10
2023-03-30T01:28:28.211Z,11.10
2023-03-30T01:31:42.772Z,11.10
2023-03-30T01:34:52.786Z,11.10
2023-03-30T01:38:04.832Z,11.20
2023-03-30T01:41:07.622Z,11.20
2023-03-30T01:44:06.707Z,11.30
2023-03-30T01:47:03.514Z,11.30
2023-03-30T01:50:02.174Z,11.30
2023-03-30T01:52:59.198Z,11.30
2023-03-30T01:55:56.768Z,11.30
2023-03-30T01:58:55.703Z,11.30
2023-03-30T02:01:51.391Z,11.30
2023-03-30T02:04:48.405Z,11.40
2023-03-30T02:07:40.229Z,11.40
2023-03-30T02:10:36.232Z,11.50
2023-03-30T02:13:29.714Z,11.50
2023-03-30T02:16:28.176Z,11.50
2023-03-30T02:19:19.580Z,11.50
2023-03-30T02:22:09.000Z,11.50
2023-03-30T02:25:02.021Z,11.50
2023-03-30T02:27:56.970Z,11.60
2023-03-30T02:30:50.626Z,11.60
2023-03-30T02:33:50.440Z,11.70
2023-03-30T02:37:02.384Z,11.80
2023-03-30T02:40:09.687Z,11.90
2023-03-30T02:43:11.177Z,12.00
2023-03-30T02:46:15.898Z,12.10
2023-03-30T02:49:17.196Z,12.20
2023-03-30T02:52:24.932Z,12.30
2023-03-30T02:55:23.216Z,12.30
2023-03-30T02:58:40.597Z,12.30
2023-03-30T03:01:43.678Z,12.40
2023-03-30T03:04:44.458Z,12.40
2023-03-30T03:07:43.338Z,12.40
2023-03-30T03:10:37.672Z,12.40
2023-03-30T03:13:29.159Z,12.40
2023-03-30T03:16:19.682Z,12.40
2023-03-30T03:19:29.946Z,12.40
2023-03-30T03:22:26.088Z,12.40
2023-03-30T03:25:17.199Z,12.40
2023-03-30T03:28:16.807Z,12.40
2023-03-30T03:31:11.299Z,12.40
2023-03-30T03:34:04.562Z,12.40
2023-03-30T03:37:15.767Z,12.40
2023-03-30T03:40:11.356Z,12.30
2023-03-30T03:43:01.713Z,12.30
2023-03-30T03:45:54.083Z,12.30
2023-03-30T03:48:44.884Z,12.30
2023-03-30T03:51:36.525Z,12.20
2023-03-30T03:54:26.561Z,12.20
2023-03-30T03:57:17.799Z,12.20
2023-03-30T04:00:16.268Z,12.20
2023-03-30T04:03:10.253Z,12.20
2023-03-30T04:06:03.528Z,12.20
2023-03-30T04:08:53.863Z,12.20
2023-03-30T04:12:01.800Z,12.20
2023-03-30T04:15:03.485Z,12.20
2023-03-30T04:18:15.618Z,12.10
2023-03-30T04:21:18.513Z,12.00
2023-03-30T04:24:23.840Z,12.00
2023-03-30T04:27:34.907Z,12.00
2023-03-30T04:30:45.939Z,12.00
2023-03-30T04:33:57.463Z,12.00
2023-03-30T04:36:57.742Z,12.00
2023-03-30T04:39:50.748Z,12.00
2023-03-30T04:43:02.861Z,12.00
2023-03-30T04:45:53.488Z,12.00
2023-03-30T04:48:48.358Z,11.90
2023-03-30T04:51:45.145Z,12.00
2023-03-30T04:54:54.806Z,12.00
2023-03-30T04:57:55.775Z,12.00
2023-03-30T05:01:01.540Z,12.00
2023-03-30T05:04:10.840Z,12.00
2023-03-30T05:07:20.629Z,12.00
2023-03-30T05:10:13.778Z,12.00
2023-03-30T05:13:16.984Z,12.00
2023-03-30T05:16:31.811Z,12.00
2023-03-30T05:19:34.541Z,12.10
2023-03-30T05:22:45.553Z,12.10
2023-03-30T05:25:47.039Z,12.10
2023-03-30T05:28:43.815Z,12.00
2023-03-30T05:31:42.111Z,12.00
2023-03-30T05:34:35.093Z,12.00
2023-03-30T05:37:47.196Z,12.00
2023-03-30T05:40:40.426Z,12.00
2023-03-30T05:43:34.226Z,12.00
2023-03-30T05:46:27.731Z,12.00
2023-03-30T05:49:36.745Z,12.00
2023-03-30T05:52:34.697Z,12.00
2023-03-30T05:55:32.941Z,12.10
2023-03-30T05:58:36.378Z,12.10
2023-03-30T06:01:47.161Z,12.00
2023-03-30T06:04:42.778Z,12.00
2023-03-30T06:07:34.092Z,12.00
2023-03-30T06:10:24.685Z,12.10
2023-03-30T06:13:17.433Z,12.10
2023-03-30T06:16:12.081Z,12.20
2023-03-30T06:19:03.213Z,12.20
2023-03-30T06:21:55.780Z,12.20
2023-03-30T06:24:58.611Z,12.30
2023-03-30T06:27:50.227Z,12.30
2023-03-30T06:30:43.556Z,12.40
2023-03-30T06:33:34.226Z,12.40
2023-03-30T06:36:44.178Z,12.40
2023-03-30T06:39:38.764Z,12.50
2023-03-30T06:42:31.042Z,12.50
2023-03-30T06:45:37.860Z,12.50
2023-03-30T06:48:28.222Z,12.60
2023-03-30T06:51:39.734Z,12.60
2023-03-30T06:54:29.986Z,12.60
2023-03-30T06:57:31.491Z,12.70
2023-03-30T07:00:21.911Z,12.70
2023-03-30T07:03:32.642Z,12.70
2023-03-30T07:06:22.972Z,12.60
2023-03-30T07:09:14.187Z,12.70
2023-03-30T07:12:04.246Z,12.70
2023-03-30T07:14:59.024Z,12.80
2023-03-30T07:17:49.654Z,12.90
2023-03-30T07:20:40.436Z,13.00
2023-03-30T07:23:44.713Z,13.10
2023-03-30T07:26:48.723Z,13.30
2023-03-30T07:29:38.808Z,13.40
2023-03-30T07:32:32.459Z,13.60
2023-03-30T07:35:20.747Z,13.80
2023-03-30T07:38:09.321Z,13.90
2023-03-30T07:41:03.653Z,13.90
2023-03-30T07:43:52.311Z,13.90
2023-03-30T07:46:41.473Z,14.00
2023-03-30T07:49:41.186Z,13.90
2023-03-30T07:52:29.577Z,13.90
2023-03-30T07:55:22.166Z,14.00
2023-03-30T07:58:20.564Z,14.00
2023-03-30T08:01:08.652Z,14.00
2023-03-30T08:04:16.300Z,14.00
2023-03-30T08:07:06.213Z,13.90
2023-03-30T08:09:54.375Z,13.80
2023-03-30T08:12:42.643Z,13.90
2023-03-30T08:15:30.893Z,13.90
2023-03-30T08:18:18.895Z,14.00
2023-03-30T08:21:07.310Z,14.10
2023-03-30T08:23:59.146Z,14.20
2023-03-30T08:26:47.582Z,14.30
2023-03-30T08:29:35.908Z,14.40
2023-03-30T08:32:24.200Z,14.60
2023-03-30T08:35:13.450Z,14.70
2023-03-30T08:38:01.410Z,14.90
2023-03-30T08:40:52.307Z,15.10
2023-03-30T08:43:51.843Z,15.40
2023-03-30T08:46:43.441Z,15.60
2023-03-30T08:49:38.840Z,15.50
2023-03-30T08:52:30.605Z,15.40
2023-03-30T08:55:26.335Z,15.40
2023-03-30T08:58:24.617Z,15.30
2023-03-30T09:01:20.415Z,15.30
2023-03-30T09:04:20.610Z,15.40
2023-03-30T09:07:18.182Z,15.60
2023-03-30T09:10:13.698Z,15.60
2023-03-30T09:13:03.810Z,15.80
2023-03-30T09:16:00.464Z,15.90
2023-03-30T09:18:55.563Z,16.10
2023-03-30T09:21:46.977Z,16.20
2023-03-30T09:24:40.085Z,16.20
2023-03-30T09:27:42.458Z,16.50
2023-03-30T09:30:42.432Z,16.60
2023-03-30T09:33:43.537Z,17.00
2023-03-30T09:36:39.730Z,18.00
2023-03-30T09:39:32.965Z,19.00
2023-03-30T09:42:34.319Z,19.90
2023-03-30T09:45:27.934Z,20.20
2023-03-30T09:48:18.230Z,20.30
2023-03-30T09:51:17.793Z,20.30
2023-03-30T09:54:08.132Z,20.60
2023-03-30T09:56:57.333Z,20.90
2023-03-30T09:59:46.181Z,20.90
2023-03-30T10:02:34.481Z,20.50
2023-03-30T10:05:22.776Z,20.30
2023-03-30T10:08:25.133Z,20.10
2023-03-30T10:11:13.365Z,19.90
2023-03-30T10:14:01.317Z,20.00
2023-03-30T10:16:49.266Z,20.50
2023-03-30T10:19:38.971Z,21.40
2023-03-30T10:22:30.989Z,22.30
2023-03-30T10:25:25.282Z,22.20
2023-03-30T10:28:21.906Z,21.90
2023-03-30T10:31:17.072Z,22.00
2023-03-30T10:34:08.057Z,22.20
2023-03-30T10:36:56.233Z,22.10
2023-03-30T10:39:47.571Z,21.80
2023-03-30T10:42:37.848Z,21.30
2023-03-30T10:45:43.235Z,20.70
2023-03-30T10:48:46.749Z,20.10
2023-03-30T10:51:43.815Z,19.60
2023-03-30T10:54:35.636Z,19.10
2023-03-30T10:57:30.429Z,18.80
2023-03-30T11:00:31.900Z,18.50
2023-03-30T11:03:26.161Z,18.20
2023-03-30T11:06:18.428Z,18.10
2023-03-30T11:09:12.000Z,17.90
2023-03-30T11:12:04.855Z,17.80
2023-03-30T11:14:57.269Z,17.70
2023-03-30T11:17:56.201Z,17.70
2023-03-30T11:20:53.112Z,17.50
2023-03-30T11:23:47.453Z,17.40
2023-03-30T11:26:41.093Z,17.30
2023-03-30T11:29:38.311Z,17.20
2023-03-30T11:32:33.257Z,17.00
2023-03-30T11:35:31.890Z,16.80
2023-03-30T11:38:25.340Z,16.60
2023-03-30T11:41:14.628Z,16.40
2023-03-30T11:44:03.157Z,16.20
2023-03-30T11:47:01.679Z,16.20
2023-03-30T11:50:04.596Z,16.00
2023-03-30T11:53:09.094Z,15.90
2023-03-30T11:56:07.994Z,15.70
2023-03-30T11:59:06.188Z,15.50
2023-03-30T12:02:08.547Z,15.40
2023-03-30T12:05:02.006Z,15.20
2023-03-30T12:07:59.102Z,15.00
2023-03-30T12:10:52.165Z,14.80
2023-03-30T12:13:51.336Z,14.60
2023-03-30T12:16:47.151Z,14.40
2023-03-30T12:19:55.492Z,14.10
2023-03-30T12:22:49.335Z,14.00
2023-03-30T12:25:51.729Z,13.80
2023-03-30T12:29:20.858Z,13.60
2023-03-30T12:32:22.120Z,13.50
2023-03-30T12:35:39.339Z,13.50
2023-03-30T12:38:26.627Z,13.40
2023-03-30T12:41:18.646Z,13.30
2023-03-30T12:44:35.813Z,13.30
2023-03-30T12:47:38.056Z,13.30
2023-03-30T12:50:37.611Z,13.30
2023-03-30T12:54:03.840Z,13.30
2023-03-30T12:57:03.651Z,13.40
2023-03-30T13:00:05.758Z,13.30
2023-03-30T13:03:10.983Z,13.30
2023-03-30T13:06:02.108Z,13.30
2023-03-30T13:08:57.147Z,13.20
2023-03-30T13:11:46.170Z,13.20
2023-03-30T13:14:47.969Z,13.20
2023-03-30T13:17:58.575Z,13.20
2023-03-30T13:21:07.505Z,13.10
2023-03-30T13:24:06.959Z,13.10
2023-03-30T13:26:54.363Z,13.10
2023-03-30T13:29:43.949Z,13.00
2023-03-30T13:32:46.727Z,13.00
2023-03-30T13:35:50.616Z,13.00
2023-03-30T13:38:54.179Z,13.10
2023-03-30T13:41:55.523Z,13.10
2023-03-30T13:44:57.257Z,13.00
2023-03-30T13:47:57.493Z,13.00
2023-03-30T13:50:50.456Z,13.00
2023-03-30T13:53:43.631Z,13.00
2023-03-30T13:56:35.207Z,13.00
2023-03-30T13:59:27.349Z,13.00
2023-03-30T14:02:19.222Z,13.00
2023-03-30T14:05:15.850Z,13.00
2023-03-30T14:08:04.574Z,13.00
2023-03-30T14:10:53.814Z,13.00
2023-03-30T14:13:41.198Z,13.00
2023-03-30T14:16:33.913Z,12.90
2023-03-30T14:19:26.686Z,12.90
2023-03-30T14:22:21.502Z,13.00
2023-03-30T14:25:25.928Z,13.00
2023-03-30T14:28:16.582Z,13.00
2023-03-30T14:31:06.995Z,13.00
2023-03-30T14:33:55.120Z,12.90
2023-03-30T14:36:46.501Z,12.90
2023-03-30T14:39:39.676Z,12.90
2023-03-30T14:42:34.051Z,12.90
2023-03-30T14:45:22.047Z,12.90
2023-03-30T14:48:14.856Z,12.90
2023-03-30T14:51:03.602Z,12.90
2023-03-30T14:53:53.086Z,12.90
2023-03-30T14:56:41.432Z,13.00
2023-03-30T14:59:30.185Z,13.10
2023-03-30T15:02:21.925Z,13.20
2023-03-30T15:05:10.919Z,13.30
2023-03-30T15:07:58.778Z,13.50
2023-03-30T15:10:53.100Z,13.50
2023-03-30T15:13:45.150Z,13.60
2023-03-30T15:16:35.997Z,13.60
2023-03-30T15:19:31.218Z,13.50
2023-03-30T15:22:25.995Z,13.40
2023-03-30T15:25:16.960Z,13.40
2023-03-30T15:28:08.398Z,13.30
2023-03-30T15:30:59.157Z,13.20
2023-03-30T15:33:48.580Z,13.20
2023-03-30T15:36:40.131Z,13.10
2023-03-30T15:39:34.221Z,13.10
2023-03-30T15:42:27.249Z,13.00
2023-03-30T15:45:19.523Z,13.00
2023-03-30T15:48:11.967Z,13.00
2023-03-30T15:51:05.739Z,13.00
2023-03-30T15:53:56.705Z,13.00
2023-03-30T15:56:50.765Z,13.00
2023-03-30T15:59:42.368Z,13.10
2023-03-30T16:02:58.153Z,13.10
2023-03-30T16:05:45.948Z,13.10
2023-03-30T16:08:33.882Z,13.00
2023-03-30T16:11:23.177Z,13.00
2023-03-30T16:14:15.937Z,13.00
2023-03-30T16:17:03.294Z,13.00
2023-03-30T16:19:52.152Z,13.00
2023-03-30T16:22:39.812Z,13.20
2023-03-30T16:28:20.834Z,13.30
2023-03-30T16:31:15.744Z,13.30
2023-03-30T16:34:03.903Z,13.30
2023-03-30T16:36:52.965Z,13.30
2023-03-30T16:39:40.876Z,13.20
2023-03-30T16:42:28.474Z,13.10
2023-03-30T16:45:16.593Z,13.00
2023-03-30T16:48:04.404Z,13.00
2023-03-30T16:50:54.816Z,12.90
2023-03-30T16:53:43.860Z,12.80
2023-03-30T16:56:32.110Z,12.70
2023-03-30T16:59:24.446Z,12.60
2023-03-30T17:02:17.474Z,12.60
2023-03-30T17:05:06.623Z,12.50
2023-03-30T17:07:55.537Z,12.40
2023-03-30T17:10:44.624Z,12.40
2023-03-30T17:13:33.542Z,12.30
2023-03-30T17:16:22.232Z,12.30
2023-03-30T17:19:14.249Z,12.20
2023-03-30T17:22:01.517Z,12.30
2023-03-30T17:24:49.369Z,12.20
2023-03-30T17:27:38.614Z,12.20
2023-03-30T17:30:28.134Z,12.30
2023-03-30T17:33:15.641Z,12.30
2023-03-30T17:36:06.385Z,12.30
2023-03-30T17:38:54.724Z,12.30
2023-03-30T17:41:42.498Z,12.30
2023-03-30T17:44:31.386Z,12.30
2023-03-30T17:47:18.902Z,12.30
2023-03-30T17:50:19.354Z,12.30
2023-03-30T17:53:07.668Z,12.20
2023-03-30T17:55:55.472Z,12.10
2023-03-30T17:58:43.135Z,12.10
2023-03-30T18:01:35.557Z,12.00
2023-03-30T18:04:24.477Z,12.00
2023-03-30T18:07:13.369Z,12.00
2023-03-30T18:10:00.793Z,12.00
2023-03-30T18:12:48.622Z,11.90
2023-03-30T18:15:36.806Z,11.90
2023-03-30T18:18:28.033Z,11.90
2023-03-30T18:21:15.639Z,11.90
2023-03-30T18:24:03.892Z,11.80
2023-03-30T18:26:52.755Z,11.80
2023-03-30T18:29:40.633Z,11.70
2023-03-30T18:32:37.203Z,11.60
2023-03-30T18:35:37.825Z,11.50
2023-03-30T18:38:26.011Z,11.50
2023-03-30T18:41:14.814Z,11.50
2023-03-30T18:44:02.739Z,11.50
2023-03-30T18:46:53.055Z,11.50
2023-03-30T18:49:40.755Z,11.50
2023-03-30T18:52:29.943Z,11.50
2023-03-30T18:55:19.182Z,11.50
2023-03-30T18:58:08.391Z,11.50
2023-03-30T19:00:57.321Z,11.40
2023-03-30T19:03:46.228Z,11.40
2023-03-30T19:06:34.333Z,11.40
2023-03-30T19:09:36.397Z,11.30
2023-03-30T19:12:28.933Z,11.30
2023-03-30T19:15:23.052Z,11.20
2023-03-30T19:18:10.850Z,11.20
2023-03-30T19:20:58.541Z,11.10
2023-03-30T19:23:46.745Z,11.10
2023-03-30T19:26:36.360Z,11.10
2023-03-30T19:29:24.563Z,11.10
2023-03-30T19:32:13.144Z,11.10
2023-03-30T19:35:00.954Z,11.00
2023-03-30T19:37:48.817Z,11.00
2023-03-30T19:40:38.076Z,11.00
2023-03-30T19:43:27.180Z,10.90
2023-03-30T19:46:14.857Z,10.90
2023-03-30T19:49:02.818Z,10.90
2023-03-30T19:51:50.446Z,10.90
2023-03-30T19:54:38.178Z,10.90
2023-03-30T19:57:26.146Z,11.00
2023-03-30T20:00:21.332Z,11.00
2023-03-30T20:03:11.259Z,11.10
2023-03-30T20:06:02.124Z,11.20
2023-03-30T20:08:52.793Z,11.20
2023-03-30T20:11:43.106Z,11.20
2023-03-30T20:14:33.265Z,11.20
2023-03-30T20:17:31.223Z,11.30
2023-03-30T20:20:26.588Z,11.30
2023-03-30T20:23:18.142Z,11.20
2023-03-30T20:26:09.226Z,11.20
2023-03-30T20:29:00.497Z,11.10
2023-03-30T20:31:50.516Z,11.10
2023-03-30T20:34:43.655Z,11.10
2023-03-30T20:37:37.139Z,11.10
2023-03-30T20:40:28.555Z,11.10
2023-03-30T20:43:20.162Z,11.10
2023-03-30T20:46:14.874Z,11.10
2023-03-30T20:49:06.169Z,11.10
2023-03-30T20:52:01.692Z,11.10
2023-03-30T20:54:51.523Z,11.00
2023-03-30T20:57:46.388Z,11.00
2023-03-30T21:00:37.621Z,10.90
2023-03-30T21:03:31.032Z,10.80
2023-03-30T21:06:24.290Z,10.80
2023-03-30T21:09:19.315Z,10.70
2023-03-30T21:12:10.763Z,10.60
2023-03-30T21:15:01.284Z,10.50
2023-03-30T21:17:53.240Z,10.50
2023-03-30T21:20:43.923Z,10.50
2023-03-30T21:23:35.150Z,10.50
2023-03-30T21:26:26.991Z,10.40
2023-03-30T21:29:20.768Z,10.40
2023-03-30T21:32:11.043Z,10.40
2023-03-30T21:35:01.541Z,10.40
2023-03-30T21:37:51.464Z,10.40
2023-03-30T21:40:43.957Z,10.40
2023-03-30T21:43:40.007Z,10.40
2023-03-30T21:46:30.425Z,10.40
2023-03-30T21:49:21.454Z,10.40
2023-03-30T21:52:13.471Z,10.30
2023-03-30T21:55:03.724Z,10.20
2023-03-30T21:57:54.391Z,10.10
2023-03-30T22:00:53.357Z,10.10
2023-03-30T22:03:51.035Z,10.00
2023-03-30T22:06:42.057Z,9.90
2023-03-30T22:09:33.094Z,9.80
2023-03-30T22:12:22.800Z,9.70
2023-03-30T22:15:13.346Z,9.60
2023-03-30T22:18:07.330Z,9.50
2023-03-30T22:21:01.131Z,9.40
2023-03-30T22:23:50.705Z,9.30
2023-03-30T22:26:42.197Z,9.30
2023-03-30T22:29:32.367Z,9.20
2023-03-30T22:32:25.484Z,9.10
2023-03-30T22:35:17.794Z,9.00
2023-03-30T22:38:09.525Z,9.00
2023-03-30T22:41:07.256Z,8.90
2023-03-30T22:44:01.832Z,8.90
2023-03-30T22:46:52.249Z,8.90
2023-03-30T22:49:42.373Z,9.00
2023-03-30T22:52:42.257Z,9.00
2023-03-30T22:55:31.944Z,9.00
2023-03-30T22:58:21.057Z,9.00
2023-03-30T23:01:11.540Z,9.00
2023-03-30T23:04:01.635Z,9.00
2023-03-30T23:06:52.661Z,9.00
2023-03-30T23:09:48.544Z,9.00
2023-03-30T23:12:38.563Z,9.00
2023-03-30T23:15:30.044Z,9.00
2023-03-30T23:18:24.348Z,9.00
2023-03-30T23:21:14.596Z,9.00
2023-03-30T23:24:07.635Z,9.00
2023-03-30T23:26:59.382Z,9.00
2023-03-30T23:29:51.502Z,8.90
2023-03-30T23:32:41.992Z,8.90
2023-03-30T23:35:32.394Z,8.90
2023-03-30T23:38:22.534Z,8.80
2023-03-30T23:41:15.515Z,8.70
2023-03-30T23:44:07.458Z,8.70
2023-03-30T23:46:58.071Z,8.60
2023-03-30T23:49:48.703Z,8.50
2023-03-30T23:52:39.233Z,8.50
2023-03-30T23:55:29.078Z,8.40
2023-03-30T23:58:18.615Z,8.30
